sensor_id;sensor_type;location;lat;lon;timestamp;temperature;humidity
64209;DHT22;50527;52.414;13.226;2023-06-22T00:02:05;19.20;99.90
64209;DHT22;50527;52.414;13.226;2023-06-22T00:04:30;19.20;99.90
64209;DHT22;50527;52.414;13.226;2023-06-22T00:06:56;19.30;99.90
64209;DHT22;50527;52.414;13.226;2023-06-22T00:09:21;19.30;99.90
64209;DHT22;50527;52.414;13.226;2023-06-22T00:11:46;19.40;99.90
64209;DHT22;50527;52.414;13.226;2023-06-22T00:14:12;19.40;99.90
64209;DHT22;50527;52.414;13.226;2023-06-22T00:16:37;19.30;99.90
64209;DHT22;50527;52.414;13.226;2023-06-22T00:19:03;19.30;99.90
64209;DHT22;50527;52.414;13.226;2023-06-22T00:21:29;19.30;99.90
64209;DHT22;50527;52.414;13.226;2023-06-22T00:23:55;19.20;99.90
64209;DHT22;50527;52.414;13.226;2023-06-22T00:26:21;19.20;99.90
64209;DHT22;50527;52.414;13.226;2023-06-22T00:28:47;19.20;99.90
64209;DHT22;50527;52.414;13.226;2023-06-22T00:31:12;19.20;99.90
64209;DHT22;50527;52.414;13.226;2023-06-22T00:33:38;19.10;99.90
64209;DHT22;50527;52.414;13.226;2023-06-22T00:36:04;19.10;99.90
64209;DHT22;50527;52.414;13.226;2023-06-22T00:38:30;19.10;99.90
64209;DHT22;50527;52.414;13.226;2023-06-22T00:40:55;19.10;99.90
64209;DHT22;50527;52.414;13.226;2023-06-22T00:43:21;19.10;99.90
64209;DHT22;50527;52.414;13.226;2023-06-22T00:45:46;19.10;99.90
64209;DHT22;50527;52.414;13.226;2023-06-22T00:48:13;19.10;99.90
64209;DHT22;50527;52.414;13.226;2023-06-22T00:50:40;19.10;99.90
64209;DHT22;50527;52.414;13.226;2023-06-22T00:53:07;19.20;99.90
64209;DHT22;50527;52.414;13.226;2023-06-22T00:55:35;19.10;99.90
64209;DHT22;50527;52.414;13.226;2023-06-22T00:58:03;19.10;99.90
64209;DHT22;50527;52.414;13.226;2023-06-22T01:00:31;19.20;99.90
64209;DHT22;50527;52.414;13.226;2023-06-22T01:02:58;19.20;99.90
64209;DHT22;50527;52.414;13.226;2023-06-22T01:05:24;19.20;99.90
64209;DHT22;50527;52.414;13.226;2023-06-22T01:10:46;19.10;99.90
64209;DHT22;50527;52.414;13.226;2023-06-22T01:13:29;19.10;99.90
64209;DHT22;50527;52.414;13.226;2023-06-22T01:16:05;19.00;99.90
64209;DHT22;50527;52.414;13.226;2023-06-22T01:18:35;19.00;99.90
64209;DHT22;50527;52.414;13.226;2023-06-22T01:21:03;19.00;99.90
64209;DHT22;50527;52.414;13.226;2023-06-22T01:26:34;19.00;99.90
64209;DHT22;50527;52.414;13.226;2023-06-22T01:29:04;19.00;99.90
64209;DHT22;50527;52.414;13.226;2023-06-22T01:31:31;18.90;99.90
64209;DHT22;50527;52.414;13.226;2023-06-22T01:34:00;18.80;99.90
64209;DHT22;50527;52.414;13.226;2023-06-22T01:36:26;18.80;99.90
64209;DHT22;50527;52.414;13.226;2023-06-22T01:38:53;18.70;99.90
64209;DHT22;50527;52.414;13.226;2023-06-22T01:41:20;18.70;99.90
64209;DHT22;50527;52.414;13.226;2023-06-22T01:43:47;18.70;99.90
64209;DHT22;50527;52.414;13.226;2023-06-22T01:46:14;18.70;99.90
64209;DHT22;50527;52.414;13.226;2023-06-22T01:48:40;18.70;99.90
64209;DHT22;50527;52.414;13.226;2023-06-22T01:51:06;18.70;99.90
64209;DHT22;50527;52.414;13.226;2023-06-22T01:53:31;18.70;99.90
64209;DHT22;50527;52.414;13.226;2023-06-22T01:55:57;18.80;99.90
64209;DHT22;50527;52.414;13.226;2023-06-22T01:58:29;18.70;99.90
64209;DHT22;50527;52.414;13.226;2023-06-22T02:01:12;18.70;99.90
64209;DHT22;50527;52.414;13.226;2023-06-22T02:03:43;18.70;99.90
64209;DHT22;50527;52.414;13.226;2023-06-22T02:06:25;18.70;99.90
64209;DHT22;50527;52.414;13.226;2023-06-22T02:08:57;18.70;99.90
64209;DHT22;50527;52.414;13.226;2023-06-22T02:11:24;18.60;99.90
64209;DHT22;50527;52.414;13.226;2023-06-22T02:13:52;18.60;99.90
64209;DHT22;50527;52.414;13.226;2023-06-22T02:16:19;18.60;99.90
64209;DHT22;50527;52.414;13.226;2023-06-22T02:18:48;18.60;99.90
64209;DHT22;50527;52.414;13.226;2023-06-22T02:21:16;18.60;99.90
64209;DHT22;50527;52.414;13.226;2023-06-22T02:23:42;18.60;99.90
64209;DHT22;50527;52.414;13.226;2023-06-22T02:26:07;18.50;99.90
64209;DHT22;50527;52.414;13.226;2023-06-22T02:28:33;18.60;99.90
64209;DHT22;50527;52.414;13.226;2023-06-22T02:30:58;18.60;99.90
64209;DHT22;50527;52.414;13.226;2023-06-22T02:33:24;18.60;99.90
64209;DHT22;50527;52.414;13.226;2023-06-22T02:35:50;18.60;99.90
64209;DHT22;50527;52.414;13.226;2023-06-22T02:38:15;18.60;99.90
64209;DHT22;50527;52.414;13.226;2023-06-22T02:40:41;18.60;99.90
64209;DHT22;50527;52.414;13.226;2023-06-22T02:43:06;18.70;99.90
64209;DHT22;50527;52.414;13.226;2023-06-22T02:45:32;18.70;99.90
64209;DHT22;50527;52.414;13.226;2023-06-22T02:47:57;18.70;99.90
64209;DHT22;50527;52.414;13.226;2023-06-22T02:50:23;18.80;99.90
64209;DHT22;50527;52.414;13.226;2023-06-22T02:52:48;18.80;99.90
64209;DHT22;50527;52.414;13.226;2023-06-22T02:55:14;18.70;99.90
64209;DHT22;50527;52.414;13.226;2023-06-22T02:57:40;18.80;99.90
64209;DHT22;50527;52.414;13.226;2023-06-22T03:00:11;18.80;99.90
64209;DHT22;50527;52.414;13.226;2023-06-22T03:02:47;18.90;99.90
64209;DHT22;50527;52.414;13.226;2023-06-22T03:05:13;18.80;99.90
64209;DHT22;50527;52.414;13.226;2023-06-22T03:07:42;18.80;99.90
64209;DHT22;50527;52.414;13.226;2023-06-22T03:10:09;18.80;99.90
64209;DHT22;50527;52.414;13.226;2023-06-22T03:12:35;18.70;99.90
64209;DHT22;50527;52.414;13.226;2023-06-22T03:15:00;18.90;99.90
64209;DHT22;50527;52.414;13.226;2023-06-22T03:17:26;18.90;99.90
64209;DHT22;50527;52.414;13.226;2023-06-22T03:19:51;18.90;99.90
64209;DHT22;50527;52.414;13.226;2023-06-22T03:22:17;18.90;99.90
64209;DHT22;50527;52.414;13.226;2023-06-22T03:24:42;18.90;99.90
64209;DHT22;50527;52.414;13.226;2023-06-22T03:27:08;18.90;99.90
64209;DHT22;50527;52.414;13.226;2023-06-22T03:29:33;18.80;99.90
64209;DHT22;50527;52.414;13.226;2023-06-22T03:31:59;18.80;99.90
64209;DHT22;50527;52.414;13.226;2023-06-22T03:34:24;18.80;99.90
64209;DHT22;50527;52.414;13.226;2023-06-22T03:36:50;18.90;99.90
64209;DHT22;50527;52.414;13.226;2023-06-22T03:39:16;18.80;99.90
64209;DHT22;50527;52.414;13.226;2023-06-22T03:41:41;18.80;99.90
64209;DHT22;50527;52.414;13.226;2023-06-22T03:44:07;18.80;99.90
64209;DHT22;50527;52.414;13.226;2023-06-22T03:46:35;18.80;99.90
64209;DHT22;50527;52.414;13.226;2023-06-22T03:49:01;18.90;99.90
64209;DHT22;50527;52.414;13.226;2023-06-22T03:51:28;18.90;99.90
64209;DHT22;50527;52.414;13.226;2023-06-22T03:53:54;18.90;99.90
64209;DHT22;50527;52.414;13.226;2023-06-22T03:56:19;18.90;99.90
64209;DHT22;50527;52.414;13.226;2023-06-22T03:58:46;18.90;99.90
64209;DHT22;50527;52.414;13.226;2023-06-22T04:01:11;18.90;99.90
64209;DHT22;50527;52.414;13.226;2023-06-22T04:03:38;19.00;99.90
64209;DHT22;50527;52.414;13.226;2023-06-22T04:06:03;19.00;99.90
64209;DHT22;50527;52.414;13.226;2023-06-22T04:08:29;19.00;99.90
64209;DHT22;50527;52.414;13.226;2023-06-22T04:10:55;19.10;99.90
64209;DHT22;50527;52.414;13.226;2023-06-22T04:13:20;19.20;99.90
64209;DHT22;50527;52.414;13.226;2023-06-22T04:15:46;19.40;99.90
64209;DHT22;50527;52.414;13.226;2023-06-22T04:18:11;19.40;99.90
64209;DHT22;50527;52.414;13.226;2023-06-22T04:20:37;19.50;99.90
64209;DHT22;50527;52.414;13.226;2023-06-22T04:23:02;19.50;99.90
64209;DHT22;50527;52.414;13.226;2023-06-22T04:25:28;19.60;99.90
64209;DHT22;50527;52.414;13.226;2023-06-22T04:27:53;19.60;99.90
64209;DHT22;50527;52.414;13.226;2023-06-22T04:30:19;19.60;99.90
64209;DHT22;50527;52.414;13.226;2023-06-22T04:32:44;19.70;99.90
64209;DHT22;50527;52.414;13.226;2023-06-22T04:35:11;19.80;99.90
64209;DHT22;50527;52.414;13.226;2023-06-22T04:37:37;19.90;99.90
64209;DHT22;50527;52.414;13.226;2023-06-22T04:40:03;20.00;99.90
64209;DHT22;50527;52.414;13.226;2023-06-22T04:42:30;19.90;99.90
64209;DHT22;50527;52.414;13.226;2023-06-22T04:44:57;20.10;99.90
64209;DHT22;50527;52.414;13.226;2023-06-22T04:47:22;20.20;99.90
64209;DHT22;50527;52.414;13.226;2023-06-22T04:49:48;20.30;99.90
64209;DHT22;50527;52.414;13.226;2023-06-22T04:52:14;20.50;99.90
64209;DHT22;50527;52.414;13.226;2023-06-22T04:57:10;20.80;99.50
64209;DHT22;50527;52.414;13.226;2023-06-22T04:59:37;21.00;97.10
64209;DHT22;50527;52.414;13.226;2023-06-22T05:02:04;21.00;97.10
64209;DHT22;50527;52.414;13.226;2023-06-22T05:04:30;21.00;96.10
64209;DHT22;50527;52.414;13.226;2023-06-22T05:07:01;21.00;95.00
64209;DHT22;50527;52.414;13.226;2023-06-22T05:09:28;21.00;95.50
64209;DHT22;50527;52.414;13.226;2023-06-22T05:11:53;21.00;95.00
64209;DHT22;50527;52.414;13.226;2023-06-22T05:14:19;21.00;95.80
64209;DHT22;50527;52.414;13.226;2023-06-22T05:16:46;21.10;96.70
64209;DHT22;50527;52.414;13.226;2023-06-22T05:19:12;21.10;95.60
64209;DHT22;50527;52.414;13.226;2023-06-22T05:21:37;21.10;96.50
64209;DHT22;50527;52.414;13.226;2023-06-22T05:24:03;21.20;94.00
64209;DHT22;50527;52.414;13.226;2023-06-22T05:26:33;21.20;94.10
64209;DHT22;50527;52.414;13.226;2023-06-22T05:29:00;21.30;93.80
64209;DHT22;50527;52.414;13.226;2023-06-22T05:31:26;21.30;93.90
64209;DHT22;50527;52.414;13.226;2023-06-22T05:33:54;21.30;93.80
64209;DHT22;50527;52.414;13.226;2023-06-22T05:36:20;21.40;93.90
64209;DHT22;50527;52.414;13.226;2023-06-22T05:38:47;21.50;94.10
64209;DHT22;50527;52.414;13.226;2023-06-22T05:41:12;21.50;94.50
64209;DHT22;50527;52.414;13.226;2023-06-22T05:43:39;21.50;95.00
64209;DHT22;50527;52.414;13.226;2023-06-22T05:46:05;21.50;96.50
64209;DHT22;50527;52.414;13.226;2023-06-22T05:48:30;21.60;96.00
64209;DHT22;50527;52.414;13.226;2023-06-22T05:50:56;21.60;95.40
64209;DHT22;50527;52.414;13.226;2023-06-22T05:53:22;21.60;95.40
64209;DHT22;50527;52.414;13.226;2023-06-22T05:55:48;21.70;92.40
64209;DHT22;50527;52.414;13.226;2023-06-22T05:58:13;21.90;92.00
64209;DHT22;50527;52.414;13.226;2023-06-22T06:00:40;21.90;93.90
64209;DHT22;50527;52.414;13.226;2023-06-22T06:03:07;22.00;92.40
64209;DHT22;50527;52.414;13.226;2023-06-22T06:05:33;22.20;91.00
64209;DHT22;50527;52.414;13.226;2023-06-22T06:08:00;22.30;91.10
64209;DHT22;50527;52.414;13.226;2023-06-22T06:10:26;22.40;89.80
64209;DHT22;50527;52.414;13.226;2023-06-22T06:12:52;22.60;86.00
64209;DHT22;50527;52.414;13.226;2023-06-22T06:15:18;22.60;85.20
64209;DHT22;50527;52.414;13.226;2023-06-22T06:17:50;22.70;86.00
64209;DHT22;50527;52.414;13.226;2023-06-22T06:20:18;22.70;84.90
64209;DHT22;50527;52.414;13.226;2023-06-22T06:22:44;22.70;85.70
64209;DHT22;50527;52.414;13.226;2023-06-22T06:25:10;22.80;79.50
64209;DHT22;50527;52.414;13.226;2023-06-22T06:27:45;22.80;81.90
64209;DHT22;50527;52.414;13.226;2023-06-22T06:30:12;22.70;83.40
64209;DHT22;50527;52.414;13.226;2023-06-22T06:32:38;22.70;83.30
64209;DHT22;50527;52.414;13.226;2023-06-22T06:35:05;22.80;82.30
64209;DHT22;50527;52.414;13.226;2023-06-22T06:37:31;22.80;81.70
64209;DHT22;50527;52.414;13.226;2023-06-22T06:39:57;23.00;79.50
64209;DHT22;50527;52.414;13.226;2023-06-22T06:42:22;23.00;80.60
64209;DHT22;50527;52.414;13.226;2023-06-22T06:44:49;23.20;83.50
64209;DHT22;50527;52.414;13.226;2023-06-22T06:47:15;23.30;79.70
64209;DHT22;50527;52.414;13.226;2023-06-22T06:49:42;23.50;75.00
64209;DHT22;50527;52.414;13.226;2023-06-22T06:52:08;23.70;74.90
64209;DHT22;50527;52.414;13.226;2023-06-22T06:54:33;23.90;69.80
64209;DHT22;50527;52.414;13.226;2023-06-22T06:56:59;24.10;70.40
64209;DHT22;50527;52.414;13.226;2023-06-22T06:59:24;24.20;67.80
64209;DHT22;50527;52.414;13.226;2023-06-22T07:01:49;24.80;67.70
64209;DHT22;50527;52.414;13.226;2023-06-22T07:04:15;27.00;60.90
64209;DHT22;50527;52.414;13.226;2023-06-22T07:06:40;27.90;57.20
64209;DHT22;50527;52.414;13.226;2023-06-22T07:09:07;27.30;53.00
64209;DHT22;50527;52.414;13.226;2023-06-22T07:11:33;26.80;53.20
64209;DHT22;50527;52.414;13.226;2023-06-22T07:13:58;27.00;54.10
64209;DHT22;50527;52.414;13.226;2023-06-22T07:16:25;27.00;53.70
64209;DHT22;50527;52.414;13.226;2023-06-22T07:18:53;26.70;54.70
64209;DHT22;50527;52.414;13.226;2023-06-22T07:21:18;26.30;55.90
64209;DHT22;50527;52.414;13.226;2023-06-22T07:23:44;26.00;53.10
64209;DHT22;50527;52.414;13.226;2023-06-22T07:26:09;25.90;53.60
64209;DHT22;50527;52.414;13.226;2023-06-22T07:28:35;25.70;53.50
64209;DHT22;50527;52.414;13.226;2023-06-22T07:31:03;25.60;57.10
64209;DHT22;50527;52.414;13.226;2023-06-22T07:33:29;25.70;53.50
64209;DHT22;50527;52.414;13.226;2023-06-22T07:35:55;25.70;52.70
64209;DHT22;50527;52.414;13.226;2023-06-22T07:38:20;25.80;53.10
64209;DHT22;50527;52.414;13.226;2023-06-22T07:40:47;25.90;52.80
64209;DHT22;50527;52.414;13.226;2023-06-22T07:43:12;25.80;53.50
64209;DHT22;50527;52.414;13.226;2023-06-22T07:45:38;25.50;52.20
64209;DHT22;50527;52.414;13.226;2023-06-22T07:48:06;25.40;53.50
64209;DHT22;50527;52.414;13.226;2023-06-22T07:50:32;25.30;54.60
64209;DHT22;50527;52.414;13.226;2023-06-22T07:52:57;25.10;53.60
64209;DHT22;50527;52.414;13.226;2023-06-22T07:55:22;25.00;52.70
64209;DHT22;50527;52.414;13.226;2023-06-22T07:57:49;24.90;51.80
64209;DHT22;50527;52.414;13.226;2023-06-22T08:00:17;24.90;50.70
64209;DHT22;50527;52.414;13.226;2023-06-22T08:02:45;24.90;51.50
64209;DHT22;50527;52.414;13.226;2023-06-22T08:05:11;24.80;51.40
64209;DHT22;50527;52.414;13.226;2023-06-22T08:07:37;24.80;53.60
64209;DHT22;50527;52.414;13.226;2023-06-22T08:10:04;24.80;54.80
64209;DHT22;50527;52.414;13.226;2023-06-22T08:12:30;24.90;53.90
64209;DHT22;50527;52.414;13.226;2023-06-22T08:14:56;24.90;52.60
64209;DHT22;50527;52.414;13.226;2023-06-22T08:17:23;24.90;53.70
64209;DHT22;50527;52.414;13.226;2023-06-22T08:19:48;25.00;54.70
64209;DHT22;50527;52.414;13.226;2023-06-22T08:22:14;25.00;54.90
64209;DHT22;50527;52.414;13.226;2023-06-22T08:24:39;25.00;55.00
64209;DHT22;50527;52.414;13.226;2023-06-22T08:27:07;25.00;54.40
64209;DHT22;50527;52.414;13.226;2023-06-22T08:29:34;25.10;54.70
64209;DHT22;50527;52.414;13.226;2023-06-22T08:31:59;25.20;53.30
64209;DHT22;50527;52.414;13.226;2023-06-22T08:34:25;25.30;54.10
64209;DHT22;50527;52.414;13.226;2023-06-22T08:36:53;25.40;56.10
64209;DHT22;50527;52.414;13.226;2023-06-22T08:39:19;25.70;54.50
64209;DHT22;50527;52.414;13.226;2023-06-22T08:41:46;25.90;53.00
64209;DHT22;50527;52.414;13.226;2023-06-22T08:44:12;26.10;53.80
64209;DHT22;50527;52.414;13.226;2023-06-22T08:46:37;26.20;53.80
64209;DHT22;50527;52.414;13.226;2023-06-22T08:49:04;26.40;52.30
64209;DHT22;50527;52.414;13.226;2023-06-22T08:51:29;26.40;53.70
64209;DHT22;50527;52.414;13.226;2023-06-22T08:53:55;26.50;47.90
64209;DHT22;50527;52.414;13.226;2023-06-22T08:56:20;26.40;48.40
64209;DHT22;50527;52.414;13.226;2023-06-22T08:58:46;26.30;48.20
64209;DHT22;50527;52.414;13.226;2023-06-22T09:01:11;26.30;48.10
64209;DHT22;50527;52.414;13.226;2023-06-22T09:03:37;26.30;48.10
64209;DHT22;50527;52.414;13.226;2023-06-22T09:06:03;26.30;49.00
64209;DHT22;50527;52.414;13.226;2023-06-22T09:08:28;26.30;49.10
64209;DHT22;50527;52.414;13.226;2023-06-22T09:10:54;26.40;49.80
64209;DHT22;50527;52.414;13.226;2023-06-22T09:13:19;26.40;49.40
64209;DHT22;50527;52.414;13.226;2023-06-22T09:15:45;26.40;49.90
64209;DHT22;50527;52.414;13.226;2023-06-22T09:18:11;26.30;48.80
64209;DHT22;50527;52.414;13.226;2023-06-22T09:20:37;26.20;49.40
64209;DHT22;50527;52.414;13.226;2023-06-22T09:23:02;26.20;48.20
64209;DHT22;50527;52.414;13.226;2023-06-22T09:25:27;26.10;48.80
64209;DHT22;50527;52.414;13.226;2023-06-22T09:27:53;26.10;47.90
64209;DHT22;50527;52.414;13.226;2023-06-22T09:30:19;26.10;48.90
64209;DHT22;50527;52.414;13.226;2023-06-22T09:32:44;26.10;48.80
64209;DHT22;50527;52.414;13.226;2023-06-22T09:35:10;26.10;49.10
64209;DHT22;50527;52.414;13.226;2023-06-22T09:37:38;26.10;49.00
64209;DHT22;50527;52.414;13.226;2023-06-22T09:40:04;26.20;49.10
64209;DHT22;50527;52.414;13.226;2023-06-22T09:42:36;26.30;51.30
64209;DHT22;50527;52.414;13.226;2023-06-22T09:45:02;26.40;50.40
64209;DHT22;50527;52.414;13.226;2023-06-22T09:47:28;26.50;50.70
64209;DHT22;50527;52.414;13.226;2023-06-22T09:49:54;26.70;50.10
64209;DHT22;50527;52.414;13.226;2023-06-22T09:52:21;26.90;49.40
64209;DHT22;50527;52.414;13.226;2023-06-22T09:54:46;26.90;47.40
64209;DHT22;50527;52.414;13.226;2023-06-22T09:57:12;27.00;48.90
64209;DHT22;50527;52.414;13.226;2023-06-22T09:59:38;26.90;48.10
64209;DHT22;50527;52.414;13.226;2023-06-22T10:02:06;26.90;49.50
64209;DHT22;50527;52.414;13.226;2023-06-22T10:04:31;26.90;50.00
64209;DHT22;50527;52.414;13.226;2023-06-22T10:06:57;27.00;50.10
64209;DHT22;50527;52.414;13.226;2023-06-22T10:09:22;27.30;49.30
64209;DHT22;50527;52.414;13.226;2023-06-22T10:11:48;27.20;49.50
64209;DHT22;50527;52.414;13.226;2023-06-22T10:14:13;27.10;48.20
64209;DHT22;50527;52.414;13.226;2023-06-22T10:16:39;27.10;48.80
64209;DHT22;50527;52.414;13.226;2023-06-22T10:19:06;27.10;48.50
64209;DHT22;50527;52.414;13.226;2023-06-22T10:21:32;27.20;47.90
64209;DHT22;50527;52.414;13.226;2023-06-22T10:23:58;27.60;48.30
64209;DHT22;50527;52.414;13.226;2023-06-22T10:26:24;28.10;47.00
64209;DHT22;50527;52.414;13.226;2023-06-22T10:28:50;29.20;47.50
64209;DHT22;50527;52.414;13.226;2023-06-22T10:31:15;29.70;43.60
64209;DHT22;50527;52.414;13.226;2023-06-22T10:33:42;29.50;44.90
64209;DHT22;50527;52.414;13.226;2023-06-22T10:36:09;29.50;44.20
64209;DHT22;50527;52.414;13.226;2023-06-22T10:38:35;29.50;43.80
64209;DHT22;50527;52.414;13.226;2023-06-22T10:41:00;29.00;43.80
64209;DHT22;50527;52.414;13.226;2023-06-22T10:43:26;28.90;43.80
64209;DHT22;50527;52.414;13.226;2023-06-22T10:45:52;28.60;43.50
64209;DHT22;50527;52.414;13.226;2023-06-22T10:48:17;28.60;44.60
64209;DHT22;50527;52.414;13.226;2023-06-22T10:50:43;28.50;44.20
64209;DHT22;50527;52.414;13.226;2023-06-22T10:53:08;28.70;45.70
64209;DHT22;50527;52.414;13.226;2023-06-22T10:55:34;28.70;44.50
64209;DHT22;50527;52.414;13.226;2023-06-22T10:57:59;28.70;44.90
64209;DHT22;50527;52.414;13.226;2023-06-22T11:00:24;28.70;44.20
64209;DHT22;50527;52.414;13.226;2023-06-22T11:02:50;28.60;45.10
64209;DHT22;50527;52.414;13.226;2023-06-22T11:05:16;28.70;45.30
64209;DHT22;50527;52.414;13.226;2023-06-22T11:07:43;28.80;44.80
64209;DHT22;50527;52.414;13.226;2023-06-22T11:10:09;28.60;44.40
64209;DHT22;50527;52.414;13.226;2023-06-22T11:12:35;28.70;43.80
64209;DHT22;50527;52.414;13.226;2023-06-22T11:15:01;28.80;44.50
64209;DHT22;50527;52.414;13.226;2023-06-22T11:17:26;28.80;43.50
64209;DHT22;50527;52.414;13.226;2023-06-22T11:19:52;28.80;44.20
64209;DHT22;50527;52.414;13.226;2023-06-22T11:22:17;28.80;44.50
64209;DHT22;50527;52.414;13.226;2023-06-22T11:24:43;28.80;42.80
64209;DHT22;50527;52.414;13.226;2023-06-22T11:27:08;28.70;43.80
64209;DHT22;50527;52.414;13.226;2023-06-22T11:29:34;28.50;44.00
64209;DHT22;50527;52.414;13.226;2023-06-22T11:31:59;28.60;44.20
64209;DHT22;50527;52.414;13.226;2023-06-22T11:34:25;28.70;44.00
64209;DHT22;50527;52.414;13.226;2023-06-22T11:36:50;28.60;44.80
64209;DHT22;50527;52.414;13.226;2023-06-22T11:39:15;28.70;44.20
64209;DHT22;50527;52.414;13.226;2023-06-22T11:45:05;28.80;45.50
64209;DHT22;50527;52.414;13.226;2023-06-22T11:47:30;28.90;41.80
64209;DHT22;50527;52.414;13.226;2023-06-22T11:49:56;28.80;42.60
64209;DHT22;50527;52.414;13.226;2023-06-22T11:52:21;28.70;44.20
64209;DHT22;50527;52.414;13.226;2023-06-22T11:54:47;28.80;43.80
64209;DHT22;50527;52.414;13.226;2023-06-22T12:00:34;28.60;43.50
64209;DHT22;50527;52.414;13.226;2023-06-22T12:02:59;28.60;43.30
64209;DHT22;50527;52.414;13.226;2023-06-22T12:05:25;28.60;43.50
64209;DHT22;50527;52.414;13.226;2023-06-22T12:07:53;28.80;42.70
64209;DHT22;50527;52.414;13.226;2023-06-22T12:10:19;28.70;43.30
64209;DHT22;50527;52.414;13.226;2023-06-22T12:12:44;28.90;43.30
64209;DHT22;50527;52.414;13.226;2023-06-22T12:15:10;28.90;43.00
64209;DHT22;50527;52.414;13.226;2023-06-22T12:17:35;28.90;43.90
64209;DHT22;50527;52.414;13.226;2023-06-22T12:20:02;29.00;43.00
64209;DHT22;50527;52.414;13.226;2023-06-22T12:22:33;28.90;42.50
64209;DHT22;50527;52.414;13.226;2023-06-22T12:24:59;28.90;43.40
64209;DHT22;50527;52.414;13.226;2023-06-22T12:27:25;28.70;43.00
64209;DHT22;50527;52.414;13.226;2023-06-22T12:29:51;28.60;41.80
64209;DHT22;50527;52.414;13.226;2023-06-22T12:32:16;28.70;42.90
64209;DHT22;50527;52.414;13.226;2023-06-22T12:34:42;28.80;43.10
64209;DHT22;50527;52.414;13.226;2023-06-22T12:37:08;28.90;42.50
64209;DHT22;50527;52.414;13.226;2023-06-22T12:39:34;29.10;42.90
64209;DHT22;50527;52.414;13.226;2023-06-22T12:42:00;29.10;42.50
64209;DHT22;50527;52.414;13.226;2023-06-22T12:44:25;29.10;42.40
64209;DHT22;50527;52.414;13.226;2023-06-22T12:46:51;28.90;43.20
64209;DHT22;50527;52.414;13.226;2023-06-22T12:49:16;28.70;42.40
64209;DHT22;50527;52.414;13.226;2023-06-22T12:51:43;28.80;42.80
64209;DHT22;50527;52.414;13.226;2023-06-22T12:54:09;28.80;43.40
64209;DHT22;50527;52.414;13.226;2023-06-22T12:56:35;29.00;43.40
64209;DHT22;50527;52.414;13.226;2023-06-22T12:59:00;29.10;42.80
64209;DHT22;50527;52.414;13.226;2023-06-22T13:01:28;29.20;42.60
64209;DHT22;50527;52.414;13.226;2023-06-22T13:03:55;29.20;42.30
64209;DHT22;50527;52.414;13.226;2023-06-22T13:06:21;29.10;42.40
64209;DHT22;50527;52.414;13.226;2023-06-22T13:08:46;29.00;42.10
64209;DHT22;50527;52.414;13.226;2023-06-22T13:11:12;29.00;42.40
64209;DHT22;50527;52.414;13.226;2023-06-22T13:13:38;29.10;42.40
64209;DHT22;50527;52.414;13.226;2023-06-22T13:16:03;29.10;42.50
64209;DHT22;50527;52.414;13.226;2023-06-22T13:18:29;28.90;41.80
64209;DHT22;50527;52.414;13.226;2023-06-22T13:20:54;29.00;42.70
64209;DHT22;50527;52.414;13.226;2023-06-22T13:23:21;29.00;42.80
64209;DHT22;50527;52.414;13.226;2023-06-22T13:25:47;29.00;42.70
64209;DHT22;50527;52.414;13.226;2023-06-22T13:28:12;29.10;42.90
64209;DHT22;50527;52.414;13.226;2023-06-22T13:30:40;29.20;42.70
64209;DHT22;50527;52.414;13.226;2023-06-22T13:33:05;29.30;44.40
64209;DHT22;50527;52.414;13.226;2023-06-22T13:35:31;29.20;42.70
64209;DHT22;50527;52.414;13.226;2023-06-22T13:37:56;29.10;41.30
64209;DHT22;50527;52.414;13.226;2023-06-22T13:40:22;29.10;43.00
64209;DHT22;50527;52.414;13.226;2023-06-22T13:42:47;29.00;43.20
64209;DHT22;50527;52.414;13.226;2023-06-22T13:45:13;29.00;42.30
64209;DHT22;50527;52.414;13.226;2023-06-22T13:47:39;29.00;42.50
64209;DHT22;50527;52.414;13.226;2023-06-22T13:50:05;29.10;42.30
64209;DHT22;50527;52.414;13.226;2023-06-22T13:52:31;29.10;42.40
64209;DHT22;50527;52.414;13.226;2023-06-22T13:54:56;29.10;43.30
64209;DHT22;50527;52.414;13.226;2023-06-22T13:57:22;29.20;41.60
64209;DHT22;50527;52.414;13.226;2023-06-22T13:59:47;29.20;42.60
64209;DHT22;50527;52.414;13.226;2023-06-22T14:02:13;29.30;42.40
64209;DHT22;50527;52.414;13.226;2023-06-22T14:04:39;29.40;43.20
64209;DHT22;50527;52.414;13.226;2023-06-22T14:07:04;29.30;42.10
64209;DHT22;50527;52.414;13.226;2023-06-22T14:09:30;29.40;43.10
64209;DHT22;50527;52.414;13.226;2023-06-22T14:11:55;29.30;42.10
64209;DHT22;50527;52.414;13.226;2023-06-22T14:14:21;29.10;42.50
64209;DHT22;50527;52.414;13.226;2023-06-22T14:16:47;29.30;43.10
64209;DHT22;50527;52.414;13.226;2023-06-22T14:19:16;29.20;42.50
64209;DHT22;50527;52.414;13.226;2023-06-22T14:21:42;29.10;41.90
64209;DHT22;50527;52.414;13.226;2023-06-22T14:24:07;29.20;41.90
64209;DHT22;50527;52.414;13.226;2023-06-22T14:26:33;29.20;42.90
64209;DHT22;50527;52.414;13.226;2023-06-22T14:28:58;29.10;42.30
64209;DHT22;50527;52.414;13.226;2023-06-22T14:31:24;29.20;42.70
64209;DHT22;50527;52.414;13.226;2023-06-22T14:33:49;29.30;42.60
64209;DHT22;50527;52.414;13.226;2023-06-22T14:36:15;29.20;42.70
64209;DHT22;50527;52.414;13.226;2023-06-22T14:38:42;29.20;43.50
64209;DHT22;50527;52.414;13.226;2023-06-22T14:41:07;29.30;42.80
64209;DHT22;50527;52.414;13.226;2023-06-22T14:43:33;29.30;42.40
64209;DHT22;50527;52.414;13.226;2023-06-22T14:45:58;29.30;43.20
64209;DHT22;50527;52.414;13.226;2023-06-22T14:48:24;29.30;42.80
64209;DHT22;50527;52.414;13.226;2023-06-22T14:50:49;29.30;42.40
64209;DHT22;50527;52.414;13.226;2023-06-22T14:53:15;29.20;42.70
64209;DHT22;50527;52.414;13.226;2023-06-22T14:55:41;29.20;42.90
64209;DHT22;50527;52.414;13.226;2023-06-22T14:58:06;29.20;43.40
64209;DHT22;50527;52.414;13.226;2023-06-22T15:00:32;29.20;43.40
64209;DHT22;50527;52.414;13.226;2023-06-22T15:02:57;29.30;42.70
64209;DHT22;50527;52.414;13.226;2023-06-22T15:05:24;29.30;43.20
64209;DHT22;50527;52.414;13.226;2023-06-22T15:07:50;29.30;43.30
64209;DHT22;50527;52.414;13.226;2023-06-22T15:10:16;29.20;43.20
64209;DHT22;50527;52.414;13.226;2023-06-22T15:12:42;29.30;43.40
64209;DHT22;50527;52.414;13.226;2023-06-22T15:15:07;29.20;42.50
64209;DHT22;50527;52.414;13.226;2023-06-22T15:17:33;29.20;43.00
64209;DHT22;50527;52.414;13.226;2023-06-22T15:19:59;29.20;43.50
64209;DHT22;50527;52.414;13.226;2023-06-22T15:22:24;29.10;42.70
64209;DHT22;50527;52.414;13.226;2023-06-22T15:24:50;28.90;43.90